Island Lady — WAH8109 — position and weather

sailwx.info

Track history (hours):
 
Tides and Currents Weather Stations Pressure Air Temp Water Temp Dewpoint Dewpoint Depression Visibility Wind Speed Wind Dir Waves Ship Positions

Island Lady

Owner: SAFGE, CHARLES E, MIAMI, FL. More information available from US FCC via Universal Licensing System and Coast Guard Vessel Documentation Center.

Last reported at 2018-Feb-19 02:01 UTC. Time now 2018-Feb-19 02:15 UTC.
Position N 25°47' W 080°09'.

Type: Passenger vessel. MMSI: 367014880.

Date/timePositionNaut miles runAvg speedWind from/ knotsBaromVisibWave heightAir tempDewpointWater temp
2018-Feb-19 02:01N 25°47' W 080°09'1 2.0
2018-Feb-19 01:29N 25°46' W 080°09'2 3.8
2018-Feb-19 00:54N 25°47' W 080°11'0 0.1
2018-Feb-19 00:30N 25°47' W 080°11'2 3.5
2018-Feb-19 00:00N 25°47' W 080°09'1 2.3
2018-Feb-18 23:30N 25°46' W 080°09'2 4.5
2018-Feb-18 22:58N 25°47' W 080°11'0 0.0
2018-Feb-18 22:30N 25°47' W 080°11'2 3.4
2018-Feb-18 22:00N 25°47' W 080°09'1 2.3
2018-Feb-18 21:30N 25°46' W 080°09'2 4.5
2018-Feb-18 21:00N 25°47' W 080°11'0 0.2
2018-Feb-18 20:29N 25°47' W 080°11'1 3.1
2018-Feb-18 20:00N 25°47' W 080°10'1 1.8
2018-Feb-18 19:30N 25°46' W 080°09'2 3.5
2018-Feb-18 18:59N 25°47' W 080°11'0 0.0
2018-Feb-18 18:30N 25°47' W 080°11'2 3.4
2018-Feb-18 18:00N 25°47' W 080°09'1 2.3
2018-Feb-18 17:31N 25°46' W 080°10'1 1.5
2018-Feb-18 17:01N 25°47' W 080°11'2 3.1
2018-Feb-18 16:30N 25°47' W 080°09'1 1.8
2018-Feb-18 16:00N 25°46' W 080°09'2 3.6
2018-Feb-18 15:30N 25°47' W 080°11'0 0.0
2018-Feb-18 05:51N 25°47' W 080°11'0 0.4
2018-Feb-18 05:30N 25°47' W 080°11'2 3.3
2018-Feb-18 05:00N 25°46' W 080°09'2 3.4
2018-Feb-18 04:30N 25°47' W 080°11'2 3.5
2018-Feb-18 04:00N 25°46' W 080°09'1 1.8
2018-Feb-18 03:30N 25°46' W 080°10'1 1.9
2018-Feb-18 02:58N 25°47' W 080°11'0 0.1
2018-Feb-18 02:30N 25°47' W 080°11'2 3.1
2018-Feb-18 01:58N 25°47' W 080°09'1 1.9
2018-Feb-18 01:30N 25°46' W 080°10'1 2.3
2018-Feb-18 00:56N 25°47' W 080°11'0 0.0
2018-Feb-18 00:30N 25°47' W 080°11'2 3.3
2018-Feb-18 00:00N 25°47' W 080°09'1 2.0
2018-Feb-17 23:30N 25°46' W 080°09'2 4.4
2018-Feb-17 23:00N 25°47' W 080°11'0 0.0
2018-Feb-17 22:29N 25°47' W 080°11'1 2.8
2018-Feb-17 22:00N 25°47' W 080°10'2 3.4
2018-Feb-17 21:30N 25°46' W 080°08'3 3.9
2018-Feb-17 20:51N 25°47' W 080°11'0 0.0
2018-Feb-17 20:30N 25°47' W 080°11'1 1.4
2018-Feb-17 20:00N 25°46' W 080°11'1 2.5
2018-Feb-17 19:30N 25°47' W 080°09'2 3.2
2018-Feb-17 18:56N 25°47' W 080°11'0 0.0
2018-Feb-17 18:29N 25°47' W 080°11'1 2.5
2018-Feb-17 18:00N 25°46' W 080°10'1 1.5
2018-Feb-17 17:30N 25°47' W 080°09'2 3.2
2018-Feb-17 16:59N 25°47' W 080°11'1 1.1
2018-Feb-17 16:30N 25°46' W 080°11'1 2.8
2018-Feb-17 15:59N 25°46' W 080°09'2 3.7
2018-Feb-17 15:29N 25°47' W 080°11'0 0.0
2018-Feb-17 03:27N 25°47' W 080°11'0 0.7
2018-Feb-17 02:59N 25°47' W 080°11'0 0.4
2018-Feb-17 02:30N 25°47' W 080°11'0 0.9
2018-Feb-17 02:00N 25°47' W 080°11'0 0.0
2018-Feb-17 01:30N 25°47' W 080°11'2 3.9
2018-Feb-17 01:00N 25°47' W 080°09'1 2.0
2018-Feb-17 00:29N 25°46' W 080°09'2 4.8
2018-Feb-16 23:58N 25°47' W 080°11'0 0.2
2018-Feb-16 23:26N 25°47' W 080°11'2 5.3
2018-Feb-16 22:59N 25°46' W 080°09'1 2.3
2018-Feb-16 22:30N 25°47' W 080°09'2 3.4
2018-Feb-16 22:00N 25°47' W 080°11'0 0.0
2018-Feb-16 21:30N 25°47' W 080°11'2 4.5
2018-Feb-16 21:00N 25°46' W 080°09'1 2.3
2018-Feb-16 20:30N 25°47' W 080°09'2 3.2
2018-Feb-16 19:58N 25°47' W 080°11'0 0.0
2018-Feb-16 19:29N 25°47' W 080°11'2 5.1
2018-Feb-16 19:00N 25°46' W 080°08'2 3.3
2018-Feb-16 18:28N 25°47' W 080°10'1 2.7
2018-Feb-16 17:59N 25°47' W 080°11'0 0.0
2018-Feb-16 17:29N 25°47' W 080°11'2 4.6
2018-Feb-16 16:58N 25°46' W 080°09'1 2.3
2018-Feb-16 16:30N 25°47' W 080°09'2 3.2
2018-Feb-16 15:59N 25°47' W 080°11'0 0.0
2018-Feb-16 15:29N 25°47' W 080°11'0 0.0
2018-Feb-16 01:29N 25°47' W 080°11'2 4.7
2018-Feb-16 01:00N 25°46' W 080°09'1 2.3
2018-Feb-16 00:30N 25°47' W 080°09'2 3.3
2018-Feb-16 00:00N 25°47' W 080°11'0 0.0
2018-Feb-15 23:29N 25°47' W 080°11'2 4.9
2018-Feb-15 23:00N 25°46' W 080°09'1 2.9
2018-Feb-15 22:30N 25°47' W 080°10'1 2.7
2018-Feb-15 22:00N 25°47' W 080°11'0 0.0
2018-Feb-15 21:30N 25°47' W 080°11'2 4.6
2018-Feb-15 21:00N 25°46' W 080°09'1 2.3
2018-Feb-15 20:30N 25°47' W 080°09'2 3.0
2018-Feb-15 19:56N 25°47' W 080°11'0 0.0
2018-Feb-15 19:27N 25°47' W 080°11'2 3.6
2018-Feb-15 19:00N 25°46' W 080°10'1 1.7
2018-Feb-15 18:30N 25°47' W 080°09'2 2.9
2018-Feb-15 17:58N 25°47' W 080°11'0 0.0
2018-Feb-15 17:28N 25°47' W 080°11'2 4.4
2018-Feb-15 17:00N 25°46' W 080°09'1 1.8
2018-Feb-15 16:29N 25°47' W 080°09'2 3.5
2018-Feb-15 16:00N 25°47' W 080°11'0 0.0
2018-Feb-15 15:30N 25°47' W 080°11'0 0.0
2018-Feb-15 15:00N 25°47' W 080°11'0 0.0
2018-Feb-15 14:28N 25°47' W 080°11'0 0.0
2018-Feb-15 01:05N 25°47' W 080°11'0 0.1
2018-Feb-15 00:58N 25°47' W 080°11'0 0.0
2018-Feb-15 00:30N 25°47' W 080°11'2 4.8
2018-Feb-15 00:00N 25°46' W 080°09'1 2.5
2018-Feb-14 23:29N 25°47' W 080°10'2 3.0
2018-Feb-14 22:58N 25°47' W 080°11'0 0.0
2018-Feb-14 22:30N 25°47' W 080°11'2 4.7
2018-Feb-14 22:00N 25°46' W 080°09'1 2.5
2018-Feb-14 21:30N 25°47' W 080°10'1 2.7
2018-Feb-14 20:57N 25°47' W 080°11'0 0.0
2018-Feb-14 20:30N 25°47' W 080°11'2 4.3
2018-Feb-14 19:57N 25°46' W 080°09'1 2.2
2018-Feb-14 19:30N 25°47' W 080°09'2 2.4
2018-Feb-14 18:50N 25°47' W 080°11'0 0.0
2018-Feb-14 18:26N 25°47' W 080°11'2 4.8
2018-Feb-14 18:00N 25°46' W 080°09'1 1.9
2018-Feb-14 17:30N 25°47' W 080°09'2 3.2
2018-Feb-14 16:58N 25°47' W 080°11'0 0.0
2018-Feb-14 16:25N 25°47' W 080°11'0 0.0
2018-Feb-14 15:55N 25°47' W 080°11'0 0.0
2018-Feb-14 01:05N 25°47' W 080°11'0 0.1
2018-Feb-14 00:59N 25°47' W 080°11'0 0.0
2018-Feb-14 00:30N 25°47' W 080°11'2 4.4
2018-Feb-13 23:58N 25°46' W 080°09'1 3.0
2018-Feb-13 23:30N 25°47' W 080°10'2 2.7
2018-Feb-13 22:55N 25°47' W 080°11'0 0.0
2018-Feb-13 22:30N 25°47' W 080°11'2 4.7
2018-Feb-13 22:00N 25°46' W 080°09'1 2.0
2018-Feb-13 21:30N 25°47' W 080°09'2 3.1
2018-Feb-13 20:58N 25°47' W 080°11'0 0.1
2018-Feb-13 20:30N 25°47' W 080°11'3 5.8
2018-Feb-13 20:00N 25°46' W 080°08'2 3.2
2018-Feb-13 19:30N 25°47' W 080°10'2 2.7
2018-Feb-13 18:57N 25°47' W 080°11'0 0.0
2018-Feb-13 18:28N 25°47' W 080°11'2 4.8
2018-Feb-13 18:00N 25°46' W 080°09'1 2.2
2018-Feb-13 17:30N 25°47' W 080°09'2 3.1
2018-Feb-13 16:57N 25°47' W 080°11'0 0.0
2018-Feb-13 16:29N 25°47' W 080°11'0 0.0
2018-Feb-13 16:00N 25°47' W 080°11'0 0.0
2018-Feb-13 15:30N 25°47' W 080°11'0 0.0
2018-Feb-13 15:00N 25°47' W 080°11'1 1.1
2018-Feb-13 14:30N 25°46' W 080°11'  
Track history (hours):
 
Tides and Currents Weather Stations Pressure Air Temp Water Temp Dewpoint Dewpoint Depression Visibility Wind Speed Wind Dir Waves Ship Positions

Island Lady

Owner: SAFGE, CHARLES E, MIAMI, FL. More information available from US FCC via Universal Licensing System and Coast Guard Vessel Documentation Center.

Last reported at 2018-Feb-19 02:01 UTC. Time now 2018-Feb-19 02:15 UTC.
Position N 25°47' W 080°09'.

Type: Passenger vessel. MMSI: 367014880.

Date/timePositionNaut miles runAvg speedWind from/ knotsBaromVisibWave heightAir tempDewpointWater temp
2018-Feb-19 02:01N 25°47' W 080°09'1 2.0
2018-Feb-19 01:29N 25°46' W 080°09'2 3.8
2018-Feb-19 00:54N 25°47' W 080°11'0 0.1
2018-Feb-19 00:30N 25°47' W 080°11'2 3.5
2018-Feb-19 00:00N 25°47' W 080°09'1 2.3
2018-Feb-18 23:30N 25°46' W 080°09'2 4.5
2018-Feb-18 22:58N 25°47' W 080°11'0 0.0
2018-Feb-18 22:30N 25°47' W 080°11'2 3.4
2018-Feb-18 22:00N 25°47' W 080°09'1 2.3
2018-Feb-18 21:30N 25°46' W 080°09'2 4.5
2018-Feb-18 21:00N 25°47' W 080°11'0 0.2
2018-Feb-18 20:29N 25°47' W 080°11'1 3.1
2018-Feb-18 20:00N 25°47' W 080°10'1 1.8
2018-Feb-18 19:30N 25°46' W 080°09'2 3.5
2018-Feb-18 18:59N 25°47' W 080°11'0 0.0
2018-Feb-18 18:30N 25°47' W 080°11'2 3.4
2018-Feb-18 18:00N 25°47' W 080°09'1 2.3
2018-Feb-18 17:31N 25°46' W 080°10'1 1.5
2018-Feb-18 17:01N 25°47' W 080°11'2 3.1
2018-Feb-18 16:30N 25°47' W 080°09'1 1.8
2018-Feb-18 16:00N 25°46' W 080°09'2 3.6
2018-Feb-18 15:30N 25°47' W 080°11'0 0.0
2018-Feb-18 05:51N 25°47' W 080°11'0 0.4
2018-Feb-18 05:30N 25°47' W 080°11'2 3.3
2018-Feb-18 05:00N 25°46' W 080°09'2 3.4
2018-Feb-18 04:30N 25°47' W 080°11'2 3.5
2018-Feb-18 04:00N 25°46' W 080°09'1 1.8
2018-Feb-18 03:30N 25°46' W 080°10'1 1.9
2018-Feb-18 02:58N 25°47' W 080°11'0 0.1
2018-Feb-18 02:30N 25°47' W 080°11'2 3.1
2018-Feb-18 01:58N 25°47' W 080°09'1 1.9
2018-Feb-18 01:30N 25°46' W 080°10'1 2.3
2018-Feb-18 00:56N 25°47' W 080°11'0 0.0
2018-Feb-18 00:30N 25°47' W 080°11'2 3.3
2018-Feb-18 00:00N 25°47' W 080°09'1 2.0
2018-Feb-17 23:30N 25°46' W 080°09'2 4.4
2018-Feb-17 23:00N 25°47' W 080°11'0 0.0
2018-Feb-17 22:29N 25°47' W 080°11'1 2.8
2018-Feb-17 22:00N 25°47' W 080°10'2 3.4
2018-Feb-17 21:30N 25°46' W 080°08'3 3.9
2018-Feb-17 20:51N 25°47' W 080°11'0 0.0
2018-Feb-17 20:30N 25°47' W 080°11'1 1.4
2018-Feb-17 20:00N 25°46' W 080°11'1 2.5
2018-Feb-17 19:30N 25°47' W 080°09'2 3.2
2018-Feb-17 18:56N 25°47' W 080°11'0 0.0
2018-Feb-17 18:29N 25°47' W 080°11'1 2.5
2018-Feb-17 18:00N 25°46' W 080°10'1 1.5
2018-Feb-17 17:30N 25°47' W 080°09'2 3.2
2018-Feb-17 16:59N 25°47' W 080°11'1 1.1
2018-Feb-17 16:30N 25°46' W 080°11'1 2.8
2018-Feb-17 15:59N 25°46' W 080°09'2 3.7
2018-Feb-17 15:29N 25°47' W 080°11'0 0.0
2018-Feb-17 03:27N 25°47' W 080°11'0 0.7
2018-Feb-17 02:59N 25°47' W 080°11'0 0.4
2018-Feb-17 02:30N 25°47' W 080°11'0 0.9
2018-Feb-17 02:00N 25°47' W 080°11'0 0.0
2018-Feb-17 01:30N 25°47' W 080°11'2 3.9
2018-Feb-17 01:00N 25°47' W 080°09'1 2.0
2018-Feb-17 00:29N 25°46' W 080°09'2 4.8
2018-Feb-16 23:58N 25°47' W 080°11'0 0.2
2018-Feb-16 23:26N 25°47' W 080°11'2 5.3
2018-Feb-16 22:59N 25°46' W 080°09'1 2.3
2018-Feb-16 22:30N 25°47' W 080°09'2 3.4
2018-Feb-16 22:00N 25°47' W 080°11'0 0.0
2018-Feb-16 21:30N 25°47' W 080°11'2 4.5
2018-Feb-16 21:00N 25°46' W 080°09'1 2.3
2018-Feb-16 20:30N 25°47' W 080°09'2 3.2
2018-Feb-16 19:58N 25°47' W 080°11'0 0.0
2018-Feb-16 19:29N 25°47' W 080°11'2 5.1
2018-Feb-16 19:00N 25°46' W 080°08'2 3.3
2018-Feb-16 18:28N 25°47' W 080°10'1 2.7
2018-Feb-16 17:59N 25°47' W 080°11'0 0.0
2018-Feb-16 17:29N 25°47' W 080°11'2 4.6
2018-Feb-16 16:58N 25°46' W 080°09'1 2.3
2018-Feb-16 16:30N 25°47' W 080°09'2 3.2
2018-Feb-16 15:59N 25°47' W 080°11'0 0.0
2018-Feb-16 15:29N 25°47' W 080°11'0 0.0
2018-Feb-16 01:29N 25°47' W 080°11'2 4.7
2018-Feb-16 01:00N 25°46' W 080°09'1 2.3
2018-Feb-16 00:30N 25°47' W 080°09'2 3.3
2018-Feb-16 00:00N 25°47' W 080°11'0 0.0
2018-Feb-15 23:29N 25°47' W 080°11'2 4.9
2018-Feb-15 23:00N 25°46' W 080°09'1 2.9
2018-Feb-15 22:30N 25°47' W 080°10'1 2.7
2018-Feb-15 22:00N 25°47' W 080°11'0 0.0
2018-Feb-15 21:30N 25°47' W 080°11'2 4.6
2018-Feb-15 21:00N 25°46' W 080°09'1 2.3
2018-Feb-15 20:30N 25°47' W 080°09'2 3.0
2018-Feb-15 19:56N 25°47' W 080°11'0 0.0
2018-Feb-15 19:27N 25°47' W 080°11'2 3.6
2018-Feb-15 19:00N 25°46' W 080°10'1 1.7
2018-Feb-15 18:30N 25°47' W 080°09'2 2.9
2018-Feb-15 17:58N 25°47' W 080°11'0 0.0
2018-Feb-15 17:28N 25°47' W 080°11'2 4.4
2018-Feb-15 17:00N 25°46' W 080°09'1 1.8
2018-Feb-15 16:29N 25°47' W 080°09'2 3.5
2018-Feb-15 16:00N 25°47' W 080°11'0 0.0
2018-Feb-15 15:30N 25°47' W 080°11'0 0.0
2018-Feb-15 15:00N 25°47' W 080°11'0 0.0
2018-Feb-15 14:28N 25°47' W 080°11'0 0.0
2018-Feb-15 01:05N 25°47' W 080°11'0 0.1
2018-Feb-15 00:58N 25°47' W 080°11'0 0.0
2018-Feb-15 00:30N 25°47' W 080°11'2 4.8
2018-Feb-15 00:00N 25°46' W 080°09'1 2.5
2018-Feb-14 23:29N 25°47' W 080°10'2 3.0
2018-Feb-14 22:58N 25°47' W 080°11'0 0.0
2018-Feb-14 22:30N 25°47' W 080°11'2 4.7
2018-Feb-14 22:00N 25°46' W 080°09'1 2.5
2018-Feb-14 21:30N 25°47' W 080°10'1 2.7
2018-Feb-14 20:57N 25°47' W 080°11'0 0.0
2018-Feb-14 20:30N 25°47' W 080°11'2 4.3
2018-Feb-14 19:57N 25°46' W 080°09'1 2.2
2018-Feb-14 19:30N 25°47' W 080°09'2 2.4
2018-Feb-14 18:50N 25°47' W 080°11'0 0.0
2018-Feb-14 18:26N 25°47' W 080°11'2 4.8
2018-Feb-14 18:00N 25°46' W 080°09'1 1.9
2018-Feb-14 17:30N 25°47' W 080°09'2 3.2
2018-Feb-14 16:58N 25°47' W 080°11'0 0.0
2018-Feb-14 16:25N 25°47' W 080°11'0 0.0
2018-Feb-14 15:55N 25°47' W 080°11'0 0.0
2018-Feb-14 01:05N 25°47' W 080°11'0 0.1
2018-Feb-14 00:59N 25°47' W 080°11'0 0.0
2018-Feb-14 00:30N 25°47' W 080°11'2 4.4
2018-Feb-13 23:58N 25°46' W 080°09'1 3.0
2018-Feb-13 23:30N 25°47' W 080°10'2 2.7
2018-Feb-13 22:55N 25°47' W 080°11'0 0.0
2018-Feb-13 22:30N 25°47' W 080°11'2 4.7
2018-Feb-13 22:00N 25°46' W 080°09'1 2.0
2018-Feb-13 21:30N 25°47' W 080°09'2 3.1
2018-Feb-13 20:58N 25°47' W 080°11'0 0.1
2018-Feb-13 20:30N 25°47' W 080°11'3 5.8
2018-Feb-13 20:00N 25°46' W 080°08'2 3.2
2018-Feb-13 19:30N 25°47' W 080°10'2 2.7
2018-Feb-13 18:57N 25°47' W 080°11'0 0.0
2018-Feb-13 18:28N 25°47' W 080°11'2 4.8
2018-Feb-13 18:00N 25°46' W 080°09'1 2.2
2018-Feb-13 17:30N 25°47' W 080°09'2 3.1
2018-Feb-13 16:57N 25°47' W 080°11'0 0.0
2018-Feb-13 16:29N 25°47' W 080°11'0 0.0
2018-Feb-13 16:00N 25°47' W 080°11'0 0.0
2018-Feb-13 15:30N 25°47' W 080°11'0 0.0
2018-Feb-13 15:00N 25°47' W 080°11'1 1.1
2018-Feb-13 14:30N 25°46' W 080°11'  

Dump ship's entire track history